Time;durP1;ratioP1;P1;durP2;ratioP2;P2;SDS_P1;SDS_P2;PMS_P1;PMS_P2;Temp;Humidity;BMP_temperature;BMP_pressure;BME280_temperature;BME280_humidity;BME280_pressure;Samples;Min_cycle;Max_cycle;Signal;HPM_P1;HPM_P2
2021/03/01 00:00:24;;;;;;;5.72;3.65;;;18.40;99.90;;;;;;5111959;28;20090;-67
2021/03/01 00:02:50;;;;;;;7.47;3.70;;;18.40;99.90;;;;;;5110675;28;20391;-67
2021/03/01 00:05:16;;;;;;;5.03;3.67;;;18.30;99.90;;;;;;5111952;28;20023;-67
2021/03/01 00:07:42;;;;;;;5.50;3.63;;;18.30;99.90;;;;;;5111817;28;20020;-67
2021/03/01 00:10:10;;;;;;;5.90;3.35;;;18.30;99.90;;;;;;5111696;28;20028;-67
2021/03/01 00:12:36;;;;;;;7.50;3.70;;;18.30;99.90;;;;;;5106542;28;20051;-67
2021/03/01 00:15:07;;;;;;;5.75;3.30;;;18.20;99.90;;;;;;5111587;28;20062;-67
2021/03/01 00:17:32;;;;;;;7.20;3.80;;;18.20;99.90;;;;;;5111709;28;20103;-67
2021/03/01 00:19:58;;;;;;;5.47;3.15;;;18.20;99.90;;;;;;5115126;28;20451;-67
2021/03/01 00:22:24;;;;;;;4.57;3.55;;;18.20;99.90;;;;;;5115465;28;20055;-67
2021/03/01 00:24:50;;;;;;;6.22;3.83;;;18.20;99.90;;;;;;5115108;28;20024;-67
2021/03/01 00:27:15;;;;;;;5.70;3.83;;;18.20;99.90;;;;;;5115120;28;20023;-67
2021/03/01 00:29:41;;;;;;;4.65;3.60;;;18.10;99.90;;;;;;5115099;28;20031;-67
2021/03/01 00:32:07;;;;;;;5.30;3.70;;;18.10;99.90;;;;;;5114114;28;20411;-67
2021/03/01 00:34:33;;;;;;;5.35;3.78;;;18.10;99.90;;;;;;5113227;28;20020;-67
2021/03/01 00:36:58;;;;;;;5.70;3.80;;;18.10;99.90;;;;;;5114321;28;20024;-67
2021/03/01 00:39:24;;;;;;;5.05;3.50;;;18.10;99.90;;;;;;5114835;28;20204;-67
2021/03/01 00:41:50;;;;;;;5.50;3.60;;;18.00;99.90;;;;;;5114814;28;20494;-67
2021/03/01 00:44:15;;;;;;;5.80;3.70;;;18.00;99.90;;;;;;5114721;28;20040;-68
2021/03/01 00:46:41;;;;;;;4.93;3.90;;;18.00;99.90;;;;;;5114744;28;20022;-67
2021/03/01 00:49:07;;;;;;;4.82;3.80;;;18.00;99.90;;;;;;5114613;28;20034;-67
2021/03/01 00:51:32;;;;;;;5.13;3.72;;;17.90;99.90;;;;;;5114569;28;20040;-67
2021/03/01 00:53:58;;;;;;;5.43;3.53;;;17.90;99.90;;;;;;5114293;28;20024;-67
2021/03/01 00:56:24;;;;;;;5.32;4.03;;;17.90;99.90;;;;;;5114920;28;20036;-67
2021/03/01 00:58:49;;;;;;;6.10;4.00;;;17.90;99.90;;;;;;5114431;28;20521;-67
2021/03/01 01:01:16;;;;;;;5.47;3.60;;;17.80;99.90;;;;;;5114493;28;20061;-67
2021/03/01 01:03:41;;;;;;;5.72;3.70;;;17.80;99.90;;;;;;5113678;28;20043;-66
2021/03/01 01:06:07;;;;;;;4.10;3.38;;;17.80;99.90;;;;;;5113113;28;20554;-67
2021/03/01 01:08:32;;;;;;;4.88;3.75;;;17.80;99.90;;;;;;5114364;28;20027;-66
2021/03/01 01:10:58;;;;;;;6.88;3.47;;;17.80;99.90;;;;;;5113873;28;20085;-67
2021/03/01 01:13:24;;;;;;;5.63;4.00;;;17.70;99.90;;;;;;5114605;28;20027;-67
2021/03/01 01:15:50;;;;;;;4.95;3.80;;;17.70;99.90;;;;;;5114207;28;20016;-67
2021/03/01 01:18:16;;;;;;;6.18;3.58;;;17.70;99.90;;;;;;5114002;28;20084;-67
2021/03/01 01:20:41;;;;;;;6.28;3.83;;;17.70;99.90;;;;;;5113914;28;20131;-67
2021/03/01 01:23:07;;;;;;;6.30;3.97;;;17.70;99.90;;;;;;5113936;28;20084;-66
2021/03/01 01:25:32;;;;;;;5.57;3.65;;;17.70;99.90;;;;;;5113883;28;20028;-67
2021/03/01 01:27:58;;;;;;;4.50;3.35;;;17.60;99.90;;;;;;5114444;28;20016;-67
2021/03/01 01:30:25;;;;;;;4.60;3.53;;;17.60;99.90;;;;;;5113106;28;20028;-67
2021/03/01 01:32:51;;;;;;;4.47;3.42;;;17.60;99.90;;;;;;5112832;28;20028;-66
2021/03/01 01:35:18;;;;;;;6.03;3.40;;;17.60;99.90;;;;;;5113456;28;20475;-67
2021/03/01 01:37:44;;;;;;;5.35;3.88;;;17.60;99.90;;;;;;5113840;28;20445;-67
2021/03/01 01:40:12;;;;;;;5.05;3.85;;;17.50;99.90;;;;;;5113724;28;20035;-66
2021/03/01 01:42:38;;;;;;;5.20;3.38;;;17.50;99.90;;;;;;5113761;28;20028;-66
2021/03/01 01:45:15;;;;;;;4.47;3.65;;;17.50;99.90;;;;;;5113750;28;20043;-66
2021/03/01 01:47:43;;;;;;;5.35;4.00;;;17.50;99.90;;;;;;5113512;28;20474;-67
2021/03/01 01:50:09;;;;;;;4.90;3.83;;;17.50;99.90;;;;;;5113361;28;20035;-67
2021/03/01 01:52:35;;;;;;;3.70;3.20;;;17.50;99.90;;;;;;5113228;28;20536;-66
2021/03/01 01:55:03;;;;;;;6.00;4.18;;;17.50;99.90;;;;;;5113536;28;20028;-66
2021/03/01 01:57:29;;;;;;;4.80;3.90;;;17.50;99.90;;;;;;5113705;28;20062;-67
2021/03/01 01:59:55;;;;;;;5.68;3.78;;;17.40;99.90;;;;;;5113365;28;20024;-67
2021/03/01 02:02:21;;;;;;;5.00;3.45;;;17.40;99.90;;;;;;5112976;28;20028;-67
2021/03/01 02:04:50;;;;;;;4.28;3.03;;;17.40;99.90;;;;;;5113287;28;20119;-65
2021/03/01 02:07:30;;;;;;;4.35;3.10;;;17.40;99.90;;;;;;5113235;28;20023;-66
2021/03/01 02:10:02;;;;;;;3.60;2.88;;;17.40;99.90;;;;;;5113280;28;20024;-65
2021/03/01 02:12:40;;;;;;;4.40;3.40;;;17.40;99.90;;;;;;5113517;28;20028;-66
2021/03/01 02:15:27;;;;;;;5.53;3.30;;;17.40;99.90;;;;;;5112914;28;20029;-65
2021/03/01 02:17:53;;;;;;;5.93;3.38;;;17.40;99.90;;;;;;5111721;28;20084;-66
2021/03/01 02:20:19;;;;;;;3.42;3.05;;;17.40;99.90;;;;;;5112986;28;20415;-66
2021/03/01 02:22:44;;;;;;;4.72;3.28;;;17.40;99.90;;;;;;5112820;28;20215;-66
2021/03/01 02:25:13;;;;;;;6.20;3.53;;;17.40;99.90;;;;;;5113068;28;20073;-66
2021/03/01 02:28:03;;;;;;;4.70;3.13;;;17.40;99.90;;;;;;5112505;28;20110;-67
2021/03/01 02:30:34;;;;;;;4.55;3.15;;;17.40;99.90;;;;;;5113305;28;20058;-67
2021/03/01 02:33:08;;;;;;;3.72;2.90;;;17.40;99.90;;;;;;5112584;28;20031;-67
2021/03/01 02:35:40;;;;;;;4.60;3.10;;;17.40;99.90;;;;;;5112444;28;20088;-67
2021/03/01 02:38:08;;;;;;;3.47;2.83;;;17.40;99.90;;;;;;5092451;28;20032;-67
2021/03/01 02:40:36;;;;;;;3.78;2.92;;;17.30;99.90;;;;;;5094027;28;20065;-66
2021/03/01 02:43:04;;;;;;;4.63;3.03;;;17.30;99.90;;;;;;5112959;28;20063;-66
2021/03/01 02:45:30;;;;;;;3.75;3.05;;;17.30;99.90;;;;;;5112777;28;20023;-67
2021/03/01 02:47:59;;;;;;;5.07;3.17;;;17.30;99.90;;;;;;5112489;28;20020;-66
2021/03/01 02:50:25;;;;;;;4.45;2.97;;;17.20;99.90;;;;;;5112291;28;20142;-65
2021/03/01 02:52:52;;;;;;;4.20;3.00;;;17.30;99.90;;;;;;5112523;28;20027;-67
2021/03/01 02:55:19;;;;;;;4.07;2.90;;;17.20;99.90;;;;;;5111692;28;20062;-66
2021/03/01 02:57:46;;;;;;;3.08;2.72;;;17.20;99.90;;;;;;5112181;28;20031;-66
2021/03/01 03:00:13;;;;;;;4.50;3.10;;;17.20;99.90;;;;;;5111986;28;20028;-67
2021/03/01 03:02:41;;;;;;;11.82;3.42;;;17.20;99.90;;;;;;5112208;28;20057;-68
2021/03/01 03:05:08;;;;;;;4.97;3.03;;;17.20;99.90;;;;;;5112314;28;20059;-67
2021/03/01 03:07:37;;;;;;;5.82;3.13;;;17.20;99.90;;;;;;5112618;28;20022;-67
2021/03/01 03:10:06;;;;;;;4.10;2.97;;;17.10;99.90;;;;;;5112436;28;20445;-67
2021/03/01 03:12:34;;;;;;;3.25;2.65;;;17.10;99.90;;;;;;5112576;28;20027;-67
2021/03/01 03:15:02;;;;;;;3.65;2.70;;;17.10;99.90;;;;;;5112352;28;20023;-67
2021/03/01 03:17:32;;;;;;;3.38;2.70;;;17.10;99.90;;;;;;5111609;28;20055;-67
2021/03/01 03:19:59;;;;;;;4.45;2.80;;;17.10;99.90;;;;;;5112371;28;20019;-67
2021/03/01 03:22:25;;;;;;;3.83;2.83;;;17.10;99.90;;;;;;5112086;28;20077;-67
2021/03/01 03:24:50;;;;;;;3.38;2.70;;;17.00;99.90;;;;;;5112181;28;20111;-67
2021/03/01 03:27:16;;;;;;;3.53;2.75;;;17.10;99.90;;;;;;5111515;28;20110;-67
2021/03/01 03:29:41;;;;;;;5.68;2.70;;;17.00;99.90;;;;;;5112129;28;20028;-67
2021/03/01 03:32:08;;;;;;;5.07;3.00;;;17.00;99.90;;;;;;5112150;28;20028;-67
2021/03/01 03:34:34;;;;;;;3.80;3.10;;;17.00;99.90;;;;;;5112533;28;20020;-66
2021/03/01 03:37:07;;;;;;;4.68;2.90;;;17.00;99.90;;;;;;5111715;28;20460;-67
2021/03/01 03:39:42;;;;;;;3.50;2.50;;;17.00;99.90;;;;;;5112396;28;20050;-67
2021/03/01 03:42:09;;;;;;;4.70;2.90;;;17.00;99.90;;;;;;5111916;28;20069;-67
2021/03/01 03:44:37;;;;;;;3.65;2.80;;;17.00;99.90;;;;;;5112197;28;20076;-67
2021/03/01 03:47:06;;;;;;;4.25;3.05;;;17.00;99.90;;;;;;5112214;28;20016;-67
2021/03/01 03:49:33;;;;;;;4.13;2.92;;;17.00;99.90;;;;;;5110694;28;20116;-67
2021/03/01 03:52:01;;;;;;;4.43;2.90;;;17.00;99.90;;;;;;5112785;28;20075;-67
2021/03/01 03:54:30;;;;;;;4.00;2.60;;;17.00;99.90;;;;;;5115712;28;20031;-67
2021/03/01 03:56:57;;;;;;;3.42;2.67;;;17.00;99.90;;;;;;5114624;28;20019;-67
2021/03/01 03:59:25;;;;;;;3.90;2.97;;;16.90;99.90;;;;;;5106781;28;20031;-67
2021/03/01 04:01:52;;;;;;;3.72;2.90;;;16.90;99.90;;;;;;5115743;28;20023;-67
2021/03/01 04:04:21;;;;;;;3.10;2.72;;;16.90;99.90;;;;;;5115184;28;20051;-67
2021/03/01 04:06:47;;;;;;;4.95;2.97;;;16.90;99.90;;;;;;5115366;28;20058;-67
2021/03/01 04:09:15;;;;;;;4.38;3.00;;;16.90;99.90;;;;;;5115506;28;20028;-67
2021/03/01 04:11:43;;;;;;;6.38;2.97;;;16.90;99.90;;;;;;5115568;28;20016;-67
2021/03/01 04:14:13;;;;;;;3.55;2.65;;;16.90;99.90;;;;;;5115650;28;20027;-67
2021/03/01 04:16:41;;;;;;;3.85;2.90;;;16.90;99.90;;;;;;5115627;28;20027;-66
2021/03/01 04:19:08;;;;;;;3.42;2.65;;;16.90;99.90;;;;;;5114410;28;20130;-67
2021/03/01 04:21:36;;;;;;;4.50;2.97;;;16.80;99.90;;;;;;5115222;28;20027;-67
2021/03/01 04:24:03;;;;;;;3.00;2.25;;;16.80;99.90;;;;;;5115276;28;20118;-67
2021/03/01 04:26:29;;;;;;;3.45;2.50;;;16.80;99.90;;;;;;5115078;28;20050;-67
2021/03/01 04:28:56;;;;;;;3.83;2.47;;;16.80;99.90;;;;;;5115245;28;20040;-67
2021/03/01 04:31:22;;;;;;;3.47;2.67;;;16.80;99.90;;;;;;5115100;28;20027;-66
2021/03/01 04:33:50;;;;;;;4.78;3.03;;;16.80;99.90;;;;;;5114950;28;20051;-66
2021/03/01 04:36:16;;;;;;;4.05;3.08;;;16.80;99.90;;;;;;5115053;28;20023;-66
2021/03/01 04:38:42;;;;;;;4.25;3.00;;;16.80;99.90;;;;;;5114684;28;20027;-66
2021/03/01 04:41:10;;;;;;;5.25;3.25;;;16.80;99.90;;;;;;5115225;28;20098;-66
2021/03/01 04:43:37;;;;;;;4.20;2.85;;;16.80;99.90;;;;;;5115091;28;20067;-67
2021/03/01 04:46:04;;;;;;;4.85;3.13;;;16.70;99.90;;;;;;5114532;28;20028;-66
2021/03/01 04:48:30;;;;;;;3.13;2.83;;;16.80;99.90;;;;;;5114979;28;20375;-66
2021/03/01 04:50:57;;;;;;;6.45;3.10;;;16.70;99.90;;;;;;5114610;28;20077;-67
2021/03/01 04:53:23;;;;;;;5.95;3.47;;;16.70;99.90;;;;;;5114638;28;20076;-67
2021/03/01 04:55:49;;;;;;;5.75;3.30;;;16.70;99.90;;;;;;5114003;28;20032;-67
2021/03/01 04:58:16;;;;;;;4.00;2.83;;;16.70;99.90;;;;;;5114278;28;20039;-67
2021/03/01 05:00:43;;;;;;;5.28;2.70;;;16.70;99.90;;;;;;5114632;28;20376;-67
2021/03/01 05:03:09;;;;;;;3.53;2.80;;;16.70;99.90;;;;;;5114147;28;20028;-66
2021/03/01 05:05:35;;;;;;;4.35;2.67;;;16.70;99.90;;;;;;5114027;28;20047;-66
2021/03/01 05:08:10;;;;;;;3.08;2.45;;;16.70;99.90;;;;;;5113879;28;20114;-67
2021/03/01 05:10:38;;;;;;;3.58;3.00;;;16.60;99.90;;;;;;5113181;28;20065;-67
2021/03/01 05:13:04;;;;;;;6.30;3.20;;;16.60;99.90;;;;;;5114283;28;20117;-67
2021/03/01 05:15:29;;;;;;;4.47;3.00;;;16.60;99.90;;;;;;5113833;28;20016;-66
2021/03/01 05:17:57;;;;;;;4.43;3.17;;;16.60;99.90;;;;;;5113864;28;20365;-66
2021/03/01 05:20:22;;;;;;;5.43;3.20;;;16.60;99.90;;;;;;5114254;28;20031;-67
2021/03/01 05:22:48;;;;;;;5.13;3.13;;;16.50;99.90;;;;;;5114009;28;20027;-66
2021/03/01 05:25:14;;;;;;;5.65;2.97;;;16.50;99.90;;;;;;5112738;28;20062;-66
2021/03/01 05:27:40;;;;;;;5.03;3.28;;;16.50;99.90;;;;;;5114284;28;20567;-66
2021/03/01 05:30:10;;;;;;;4.82;2.75;;;16.40;99.90;;;;;;5113777;28;20119;-66
2021/03/01 05:32:37;;;;;;;5.10;2.88;;;16.50;99.90;;;;;;5114177;28;20035;-66
2021/03/01 05:35:06;;;;;;;3.83;2.90;;;16.40;99.90;;;;;;5113874;28;20062;-66
2021/03/01 05:37:32;;;;;;;4.70;3.30;;;16.40;99.90;;;;;;5113439;28;20472;-66
2021/03/01 05:39:58;;;;;;;3.15;2.72;;;16.40;99.90;;;;;;5113936;28;20024;-66
2021/03/01 05:42:26;;;;;;;4.10;2.80;;;16.40;99.90;;;;;;5113666;28;20540;-66
2021/03/01 05:44:53;;;;;;;3.83;2.72;;;16.40;99.90;;;;;;5113697;28;20352;-67
2021/03/01 05:47:21;;;;;;;3.90;3.17;;;16.40;99.90;;;;;;5113698;28;20022;-67
2021/03/01 05:49:47;;;;;;;4.85;3.42;;;16.30;99.90;;;;;;5113516;28;20479;-67
2021/03/01 05:52:16;;;;;;;4.40;3.13;;;16.30;99.90;;;;;;5113706;28;20070;-67
2021/03/01 05:54:44;;;;;;;5.57;3.25;;;16.30;99.90;;;;;;5113903;28;20034;-67
2021/03/01 05:57:10;;;;;;;3.38;2.78;;;16.30;99.90;;;;;;5113320;28;20031;-67
2021/03/01 05:59:36;;;;;;;3.63;2.80;;;16.30;99.90;;;;;;5113353;28;20375;-67
2021/03/01 06:02:02;;;;;;;5.88;2.90;;;16.20;99.90;;;;;;5112717;28;20023;-67
2021/03/01 06:04:28;;;;;;;4.22;3.15;;;16.20;99.90;;;;;;5113037;28;20383;-67
2021/03/01 06:06:54;;;;;;;4.55;3.40;;;16.20;99.90;;;;;;5113045;28;20020;-67
2021/03/01 06:09:20;;;;;;;4.40;3.50;;;16.20;99.90;;;;;;5113103;28;20032;-67
2021/03/01 06:11:52;;;;;;;3.80;3.40;;;16.10;99.90;;;;;;5113205;28;20019;-67
2021/03/01 06:14:18;;;;;;;4.85;3.58;;;16.10;99.90;;;;;;5113274;28;20030;-66
2021/03/01 06:17:16;;;;;;;3.85;2.67;;;16.10;99.90;;;;;;5113459;28;20023;-66
2021/03/01 06:19:42;;;;;;;4.15;3.42;;;16.10;99.90;;;;;;5113462;28;20034;-66
2021/03/01 06:22:08;;;;;;;4.90;3.70;;;16.00;99.90;;;;;;5112809;28;20119;-67
2021/03/01 06:24:34;;;;;;;4.07;3.20;;;16.00;99.90;;;;;;5112556;28;20495;-65
2021/03/01 06:27:00;;;;;;;4.20;3.20;;;16.00;99.90;;;;;;5113091;28;20027;-67
2021/03/01 06:29:26;;;;;;;6.35;3.30;;;16.00;99.90;;;;;;5112571;28;20502;-65
2021/03/01 06:31:51;;;;;;;4.25;3.22;;;16.00;99.90;;;;;;5112664;28;20028;-65
2021/03/01 06:34:30;;;;;;;6.32;3.95;;;15.80;99.90;;;;;;5107130;28;20024;-66
2021/03/01 06:37:08;;;;;;;5.40;3.80;;;15.50;99.90;;;;;;5098666;28;20031;-66
2021/03/01 06:39:44;;;;;;;6.70;3.75;;;15.40;99.90;;;;;;5112757;28;20111;-65
2021/03/01 06:42:15;;;;;;;4.88;3.50;;;15.50;99.90;;;;;;5112767;28;20384;-69
2021/03/01 06:44:45;;;;;;;8.75;3.60;;;15.60;99.90;;;;;;5112685;28;20489;-65
2021/03/01 06:47:11;;;;;;;7.07;3.72;;;15.60;99.90;;;;;;5112425;28;20030;-62
2021/03/01 06:49:38;;;;;;;5.53;3.45;;;15.60;99.90;;;;;;5112623;28;20031;-67
2021/03/01 06:52:04;;;;;;;4.95;3.67;;;15.70;99.90;;;;;;5112540;28;20050;-62
2021/03/01 06:54:30;;;;;;;16.58;9.65;;;15.70;99.90;;;;;;5112735;28;20067;-68
2021/03/01 06:56:56;;;;;;;24.10;12.43;;;14.90;99.90;;;;;;5112156;28;20467;-70
2021/03/01 06:59:23;;;;;;;23.45;14.45;;;14.30;99.50;;;;;;5112534;28;20024;-68
2021/03/01 07:01:50;;;;;;;19.90;13.80;;;13.90;99.10;;;;;;5112124;28;20550;-68
2021/03/01 07:04:25;;;;;;;18.23;11.85;;;13.80;99.40;;;;;;5112430;28;20410;-69
2021/03/01 07:06:53;;;;;;;14.98;11.48;;;13.70;99.50;;;;;;5111973;28;20027;-68
2021/03/01 07:09:29;;;;;;;17.13;11.65;;;13.60;99.40;;;;;;5112602;28;20047;-66
2021/03/01 07:11:56;;;;;;;19.77;12.88;;;13.60;99.30;;;;;;5112464;28;20106;-67
2021/03/01 07:14:26;;;;;;;19.15;12.38;;;13.50;99.70;;;;;;5112284;28;20106;-68
2021/03/01 07:16:57;;;;;;;17.80;12.65;;;13.40;99.40;;;;;;5112343;28;20031;-68
2021/03/01 07:19:28;;;;;;;17.02;13.43;;;13.40;99.50;;;;;;5110628;28;20028;-69
2021/03/01 07:21:59;;;;;;;22.73;15.60;;;13.30;99.40;;;;;;5112320;28;20069;-69
2021/03/01 07:24:30;;;;;;;21.48;16.88;;;12.90;99.10;;;;;;5112182;28;20032;-69
2021/03/01 07:26:59;;;;;;;21.95;17.33;;;12.70;99.10;;;;;;5111857;28;20026;-69
2021/03/01 07:29:29;;;;;;;22.92;16.67;;;12.50;99.00;;;;;;5115972;28;20027;-69
2021/03/01 07:31:59;;;;;;;24.10;17.00;;;12.40;99.10;;;;;;5116275;28;20492;-69
2021/03/01 07:34:25;;;;;;;23.35;16.95;;;12.30;99.20;;;;;;5115765;28;20080;-68
2021/03/01 07:36:55;;;;;;;23.10;18.38;;;12.30;99.20;;;;;;5115785;28;20028;-68
2021/03/01 07:39:22;;;;;;;24.88;17.98;;;12.20;99.50;;;;;;5116021;28;20016;-72
2021/03/01 07:41:49;;;;;;;13.20;8.38;;;12.20;99.50;;;;;;5116448;28;20110;-68
2021/03/01 07:44:16;;;;;;;13.38;7.10;;;13.20;99.90;;;;;;5102675;27;20691;-70
2021/03/01 07:46:46;;;;;;;14.60;6.35;;;14.20;99.90;;;;;;5107916;28;20030;-70
2021/03/01 07:49:13;;;;;;;11.95;6.53;;;14.90;99.90;;;;;;5115403;28;20020;-71
2021/03/01 07:51:45;;;;;;;8.25;5.18;;;15.20;99.90;;;;;;5115192;27;20028;-70
2021/03/01 07:54:15;;;;;;;7.97;5.18;;;15.50;99.90;;;;;;5114588;28;20539;-72
2021/03/01 07:56:42;;;;;;;8.18;5.25;;;15.70;99.90;;;;;;5115319;28;20153;-70
2021/03/01 07:59:09;;;;;;;9.52;4.93;;;15.80;99.90;;;;;;5114537;28;20027;-67
2021/03/01 08:01:36;;;;;;;7.15;4.40;;;16.00;99.90;;;;;;5114926;28;20043;-71
2021/03/01 08:04:03;;;;;;;8.70;4.50;;;16.10;99.90;;;;;;5114943;28;20031;-65
2021/03/01 08:06:54;;;;;;;8.70;4.20;;;16.20;99.90;;;;;;5114180;28;20027;-70
2021/03/01 08:09:41;;;;;;;7.38;3.90;;;16.60;99.90;;;;;;5115014;28;20027;-73
2021/03/01 08:12:08;;;;;;;6.47;4.18;;;16.70;99.90;;;;;;5113745;28;20467;-72
2021/03/01 08:14:52;;;;;;;8.48;4.30;;;16.90;99.90;;;;;;5113905;28;20103;-72
2021/03/01 08:17:27;;;;;;;7.20;3.95;;;17.00;99.70;;;;;;5113855;28;20110;-71
2021/03/01 08:19:54;;;;;;;9.88;4.28;;;17.20;99.60;;;;;;5114407;28;20019;-71
2021/03/01 08:22:20;;;;;;;4.80;3.72;;;17.30;99.40;;;;;;5115106;28;20437;-73
2021/03/01 08:24:56;;;;;;;6.78;4.28;;;17.40;99.60;;;;;;5114673;28;20038;-73
2021/03/01 08:27:24;;;;;;;7.25;4.53;;;17.50;99.20;;;;;;5114386;28;20054;-73
2021/03/01 08:30:19;;;;;;;7.18;4.10;;;17.50;99.00;;;;;;5114069;27;20495;-73
2021/03/01 08:33:08;;;;;;;7.68;4.28;;;17.40;98.80;;;;;;5114161;28;20165;-73
2021/03/01 08:35:35;;;;;;;10.02;4.82;;;17.50;98.60;;;;;;5113559;28;20101;-73
2021/03/01 08:38:01;;;;;;;9.57;4.80;;;17.50;98.40;;;;;;5113610;28;20036;-73
2021/03/01 08:40:27;;;;;;;8.60;5.00;;;17.70;98.30;;;;;;5113685;28;20425;-73
2021/03/01 08:42:57;;;;;;;10.90;5.30;;;17.90;98.20;;;;;;5114538;28;20015;-73
2021/03/01 08:45:43;;;;;;;10.95;5.68;;;18.10;98.10;;;;;;5113644;28;20031;-73
2021/03/01 08:48:18;;;;;;;12.10;6.75;;;18.20;98.00;;;;;;5114127;28;20091;-74
2021/03/01 08:50:45;;;;;;;12.73;6.53;;;18.30;98.00;;;;;;5113964;28;20024;-73
2021/03/01 08:53:17;;;;;;;13.70;6.90;;;18.40;97.90;;;;;;5114078;28;20035;-73
2021/03/01 08:55:43;;;;;;;14.00;7.35;;;18.40;97.70;;;;;;5113959;28;20023;-71
2021/03/01 08:58:13;;;;;;;19.80;7.53;;;18.40;97.60;;;;;;5114033;28;20030;-71
2021/03/01 09:00:57;;;;;;;16.40;7.88;;;18.50;98.40;;;;;;5112948;28;20032;-73
2021/03/01 09:03:23;;;;;;;15.17;7.90;;;18.20;98.50;;;;;;5114056;28;20043;-75
2021/03/01 09:05:51;;;;;;;17.75;7.43;;;18.00;98.90;;;;;;5114445;28;20023;-75
2021/03/01 09:08:29;;;;;;;17.65;6.95;;;17.80;98.90;;;;;;5113475;28;20472;-75
2021/03/01 09:10:56;;;;;;;15.48;7.28;;;17.70;99.20;;;;;;5114546;28;20022;-75
2021/03/01 09:13:24;;;;;;;11.93;6.82;;;17.70;99.50;;;;;;5114462;28;20035;-73
2021/03/01 09:15:50;;;;;;;13.65;6.95;;;17.70;99.80;;;;;;5115804;27;20494;-72
2021/03/01 09:18:16;;;;;;;13.90;7.13;;;17.60;99.90;;;;;;5134973;27;20027;-73
2021/03/01 09:20:43;;;;;;;19.90;7.40;;;17.70;99.90;;;;;;5125509;27;20015;-74
2021/03/01 09:23:09;;;;;;;19.75;7.93;;;17.90;99.20;;;;;;5114264;28;20031;-75
2021/03/01 09:25:36;;;;;;;13.68;7.70;;;18.20;99.50;;;;;;5114067;28;20028;-75
2021/03/01 09:28:03;;;;;;;18.15;8.25;;;18.30;99.40;;;;;;5114141;28;20051;-76
2021/03/01 09:30:28;;;;;;;18.60;9.00;;;18.30;99.40;;;;;;5113848;28;20054;-72
2021/03/01 09:32:58;;;;;;;15.75;8.05;;;18.30;99.10;;;;;;5114363;28;20391;-72
2021/03/01 09:35:25;;;;;;;17.35;9.10;;;18.30;98.70;;;;;;5113761;28;20094;-73
2021/03/01 09:37:51;;;;;;;18.30;8.45;;;18.20;98.60;;;;;;5113798;28;20027;-71
2021/03/01 09:40:19;;;;;;;19.02;9.02;;;18.20;98.50;;;;;;5113740;28;20024;-71
2021/03/01 09:42:51;;;;;;;16.85;7.97;;;18.20;98.50;;;;;;5113684;28;20028;-71
2021/03/01 09:45:18;;;;;;;14.38;7.88;;;18.10;98.40;;;;;;5114029;28;20032;-71
2021/03/01 09:47:45;;;;;;;16.23;8.07;;;18.10;98.70;;;;;;5113713;28;20024;-70
2021/03/01 09:50:12;;;;;;;16.35;7.50;;;18.10;98.30;;;;;;5113275;28;20102;-70
2021/03/01 09:52:39;;;;;;;15.60;7.65;;;18.10;98.30;;;;;;5113605;28;20020;-73
2021/03/01 09:55:06;;;;;;;17.13;7.70;;;18.10;98.30;;;;;;5113420;28;20059;-73
2021/03/01 09:57:31;;;;;;;17.27;7.80;;;18.10;98.30;;;;;;5113491;28;20024;-73
2021/03/01 09:59:57;;;;;;;15.82;7.78;;;18.00;98.30;;;;;;5112157;28;20076;-74
2021/03/01 10:02:26;;;;;;;14.10;7.30;;;18.00;98.30;;;;;;5113702;28;20023;-74
2021/03/01 10:05:09;;;;;;;15.82;7.68;;;18.00;98.30;;;;;;5113128;28;20054;-73
2021/03/01 10:07:35;;;;;;;13.38;7.38;;;18.10;98.40;;;;;;5113480;28;20034;-73
2021/03/01 10:10:11;;;;;;;13.65;7.50;;;18.00;98.40;;;;;;5113359;28;20027;-72
2021/03/01 10:12:44;;;;;;;13.43;7.28;;;18.00;98.40;;;;;;5112925;28;20148;-73
2021/03/01 10:15:10;;;;;;;12.40;6.80;;;18.00;98.50;;;;;;5113247;28;20492;-72
2021/03/01 10:17:35;;;;;;;12.73;7.38;;;18.00;98.50;;;;;;5113144;28;20023;-73
2021/03/01 10:20:13;;;;;;;13.68;6.60;;;18.00;98.50;;;;;;5113115;28;20080;-73
2021/03/01 10:22:57;;;;;;;13.05;6.25;;;18.00;98.50;;;;;;5113085;28;20398;-73
2021/03/01 10:25:35;;;;;;;13.15;7.05;;;18.00;98.50;;;;;;5113414;28;20479;-73
2021/03/01 10:28:05;;;;;;;18.13;7.22;;;18.00;98.50;;;;;;5113014;28;20092;-73
2021/03/01 10:30:30;;;;;;;12.70;6.43;;;18.00;98.50;;;;;;5110522;28;20034;-73
2021/03/01 10:33:07;;;;;;;12.98;6.68;;;18.00;98.50;;;;;;5092745;28;20019;-73
2021/03/01 10:35:33;;;;;;;12.60;6.82;;;18.00;98.50;;;;;;5106781;28;20024;-73
2021/03/01 10:38:06;;;;;;;12.43;6.88;;;18.00;98.40;;;;;;5111019;28;20092;-73
2021/03/01 10:40:33;;;;;;;9.10;5.95;;;18.00;98.40;;;;;;5111890;28;20023;-73
2021/03/01 10:43:09;;;;;;;10.85;6.43;;;18.00;98.50;;;;;;5112457;28;20031;-71
2021/03/01 10:45:43;;;;;;;14.82;6.68;;;18.00;98.60;;;;;;5112494;28;20032;-71
2021/03/01 10:48:08;;;;;;;;;;;18.10;99.00;;;;;;5112564;28;20088;-72
2021/03/01 10:50:34;;;;;;;12.63;6.32;;;18.10;98.90;;;;;;5112311;28;20305;-69
2021/03/01 10:52:59;;;;;;;11.13;6.65;;;18.10;98.60;;;;;;5112280;28;20533;-70
2021/03/01 10:55:25;;;;;;;14.18;7.25;;;18.10;98.30;;;;;;5108621;28;20410;-72
2021/03/01 10:57:50;;;;;;;12.40;6.80;;;18.00;98.70;;;;;;5104113;27;20024;-71
2021/03/01 11:00:16;;;;;;;10.63;6.88;;;18.00;98.60;;;;;;5111262;28;20024;-71
2021/03/01 11:02:42;;;;;;;11.30;6.97;;;18.10;98.70;;;;;;5110741;28;20069;-72
2021/03/01 11:05:08;;;;;;;11.32;6.38;;;18.10;98.50;;;;;;5111972;28;20027;-73
2021/03/01 11:07:34;;;;;;;10.90;6.50;;;18.10;98.30;;;;;;5110171;28;20011;-72
2021/03/01 11:09:59;;;;;;;12.48;6.80;;;18.10;98.20;;;;;;5111146;28;20038;-72
2021/03/01 11:12:25;;;;;;;11.85;6.40;;;18.20;98.30;;;;;;5126714;28;20034;-72
2021/03/01 11:14:50;;;;;;;12.02;6.57;;;18.20;98.30;;;;;;5128790;28;20130;-72
2021/03/01 11:17:16;;;;;;;11.77;6.95;;;18.20;98.00;;;;;;5111705;28;20012;-71
2021/03/01 11:19:42;;;;;;;12.13;7.07;;;18.20;98.10;;;;;;5111209;28;20032;-72
2021/03/01 11:22:07;;;;;;;9.02;6.25;;;18.20;98.20;;;;;;5110102;28;20039;-73
2021/03/01 11:24:33;;;;;;;10.07;6.25;;;18.20;98.10;;;;;;5111049;28;20051;-71
2021/03/01 11:26:59;;;;;;;12.52;6.95;;;18.20;98.10;;;;;;5110839;28;20055;-74
2021/03/01 11:29:25;;;;;;;10.13;7.53;;;18.30;97.90;;;;;;5111922;28;20106;-73
2021/03/01 11:31:51;;;;;;;13.98;8.27;;;18.30;97.80;;;;;;5111717;28;20410;-72
2021/03/01 11:34:16;;;;;;;12.77;8.40;;;18.20;97.80;;;;;;5111088;28;20147;-74
2021/03/01 11:36:42;;;;;;;11.07;7.60;;;18.10;97.40;;;;;;5111463;28;20089;-74
2021/03/01 11:39:10;;;;;;;12.52;8.32;;;18.10;97.30;;;;;;5111325;28;20486;-75
2021/03/01 11:41:38;;;;;;;10.07;8.05;;;18.10;97.40;;;;;;5110551;28;20043;-74
2021/03/01 11:44:04;;;;;;;12.32;8.43;;;18.10;97.30;;;;;;5110435;28;20409;-75
2021/03/01 11:46:29;;;;;;;14.82;8.85;;;18.10;97.20;;;;;;5111601;28;20035;-74
2021/03/01 11:48:55;;;;;;;12.93;8.68;;;18.10;97.20;;;;;;5111296;28;20166;-74
2021/03/01 11:51:20;;;;;;;11.57;8.50;;;18.00;97.20;;;;;;5110682;28;20035;-75
2021/03/01 11:53:46;;;;;;;11.55;8.60;;;18.10;97.20;;;;;;5111215;28;20020;-75
2021/03/01 11:56:13;;;;;;;11.77;8.80;;;18.10;97.10;;;;;;5110668;28;20042;-74
2021/03/01 11:58:39;;;;;;;12.20;8.55;;;18.10;97.00;;;;;;5107732;28;20020;-72
2021/03/01 12:01:06;;;;;;;12.07;8.90;;;18.20;97.00;;;;;;5105946;28;20527;-68
2021/03/01 12:03:33;;;;;;;11.32;8.68;;;18.20;97.00;;;;;;5108360;28;20471;-70
2021/03/01 12:05:58;;;;;;;12.77;9.43;;;18.10;97.40;;;;;;5108126;28;20106;-72
2021/03/01 12:08:25;;;;;;;11.35;8.70;;;18.10;97.10;;;;;;5104552;28;20441;-70
2021/03/01 12:10:51;;;;;;;11.48;8.40;;;18.10;97.40;;;;;;5103356;28;20059;-73
2021/03/01 12:13:16;;;;;;;12.88;9.05;;;18.30;97.40;;;;;;5105599;28;20054;-74
2021/03/01 12:15:42;;;;;;;9.52;7.85;;;18.60;97.30;;;;;;5105572;28;20035;-73
2021/03/01 12:18:08;;;;;;;12.43;8.98;;;18.80;97.30;;;;;;5105858;28;20024;-71
2021/03/01 12:20:33;;;;;;;12.48;8.32;;;19.00;97.30;;;;;;5108172;28;20425;-70
2021/03/01 12:22:59;;;;;;;10.80;7.70;;;19.10;97.50;;;;;;5110906;28;20027;-70
2021/03/01 12:25:25;;;;;;;11.80;7.85;;;19.20;97.50;;;;;;5113268;28;20490;-71
2021/03/01 12:27:50;;;;;;;9.85;7.25;;;19.30;97.70;;;;;;5114292;28;20024;-70
2021/03/01 12:30:17;;;;;;;10.63;7.38;;;19.40;97.80;;;;;;5114349;28;20035;-70
2021/03/01 12:32:42;;;;;;;10.77;7.45;;;19.50;97.90;;;;;;5114119;28;20024;-71
2021/03/01 12:35:09;;;;;;;9.30;7.18;;;19.60;98.00;;;;;;5114419;28;20375;-75
2021/03/01 12:37:35;;;;;;;9.05;6.95;;;19.70;98.10;;;;;;5114297;28;20421;-73
2021/03/01 12:40:01;;;;;;;11.63;6.72;;;19.70;98.50;;;;;;5114079;28;20111;-70
2021/03/01 12:42:27;;;;;;;10.40;6.57;;;19.70;98.20;;;;;;5114963;28;20031;-74
2021/03/01 12:44:52;;;;;;;8.68;6.80;;;19.80;98.20;;;;;;5113880;28;20036;-69
2021/03/01 12:47:19;;;;;;;8.85;6.40;;;19.80;98.30;;;;;;5114311;28;20104;-68